Aérodrome :
LOGIN :

S'inscrire | Disclaimer

   EN    FR    IT 

 










Légende :    VFR   VFR Marginal   IFR   IFR Intensif   IFR Très Intensif
Visi : 
Plafond : 
>= 8 km
>= 3000ft
5 à 8 km
1000 à 3000 ft
1500m à 5 km
500 à 1000 ft
800 à 1500m
200 à 500 ft
< 800m
< 200 ft
Symboles :   Orages  Brouillard  Fortes neiges  Fortes précipitations  Vent > 20 kt
SIGMETs :   Divers  Orages  Givrage  Turbulence  Onde Orograph.  Cendres Volcan.







- Altitude de l'aérodrome : 1058 ft
- Code IATA : SCN


EDDR - Saarbrücken

DERNIER METAR :
  • 221750Z 06004KT CAVOK 25/13 Q1015 NOSIG

METARs EXPIRÉS :
  • 221720Z 07004KT CAVOK 25/13 Q1015 NOSIG
  • 221650Z 32006KT 270V030 CAVOK 26/12 Q1014 NOSIG
  • 221620Z VRB05KT CAVOK 26/12 Q1014 NOSIG
  • 221550Z 29008KT 260V330 CAVOK 27/12 Q1015 NOSIG
  • 221520Z 33006KT 300V040 CAVOK 26/13 Q1015 NOSIG

TAF TAF EDDR
Valide du 22 à 18h jusqu'au 23 à 18h UTC


221700Z 2218/2318 01004KT CAVOK
BECMG 2309/2311 31005KT
Pas de NOTAMs connus pour ce terrain.



MET'MAP, la Météo Aéronautique d'un coup d'oeil ! - Copyright ORBIFLY Décembre 2007 - Disclaimer

ORBIFLY MET'MAP TEAM :

Programmation & Développement : Alexandra Zaïnal
Conception & Développement : Baudouin d'Aumeries
Co-Programmation & Développement : Marc-Olivier Méhu
Soutien technique & logistique : Manuel Goepfert

Contact : metmap@orbifly.com




SOURCES & CREDITS :

   NOAA